sensor_id;sensor_type;location;lat;lon;timestamp;P1;durP1;ratioP1;P2;durP2;ratioP2
65289;SDS011;51893;59.754;10.110;2022-12-07T00:01:41;4.90;;;3.00;;
65289;SDS011;51893;59.754;10.110;2022-12-07T00:04:14;7.30;;;3.60;;
65289;SDS011;51893;59.754;10.110;2022-12-07T00:06:44;4.90;;;3.20;;
65289;SDS011;51893;59.754;10.110;2022-12-07T00:09:16;4.10;;;2.50;;
65289;SDS011;51893;59.754;10.110;2022-12-07T00:11:44;5.00;;;3.70;;
65289;SDS011;51893;59.754;10.110;2022-12-07T00:14:15;3.20;;;2.20;;
65289;SDS011;51893;59.754;10.110;2022-12-07T00:16:43;6.60;;;3.90;;
65289;SDS011;51893;59.754;10.110;2022-12-07T00:19:12;5.30;;;3.30;;
65289;SDS011;51893;59.754;10.110;2022-12-07T00:21:40;8.10;;;3.60;;
65289;SDS011;51893;59.754;10.110;2022-12-07T00:24:09;8.30;;;3.80;;
65289;SDS011;51893;59.754;10.110;2022-12-07T00:26:39;5.30;;;3.40;;
65289;SDS011;51893;59.754;10.110;2022-12-07T00:29:20;4.60;;;3.10;;
65289;SDS011;51893;59.754;10.110;2022-12-07T00:31:50;6.10;;;3.60;;
65289;SDS011;51893;59.754;10.110;2022-12-07T00:34:21;7.70;;;2.90;;
65289;SDS011;51893;59.754;10.110;2022-12-07T00:36:49;6.40;;;2.20;;
65289;SDS011;51893;59.754;10.110;2022-12-07T00:39:16;4.90;;;3.20;;
65289;SDS011;51893;59.754;10.110;2022-12-07T00:41:43;2.90;;;2.30;;
65289;SDS011;51893;59.754;10.110;2022-12-07T00:44:12;5.00;;;3.50;;
65289;SDS011;51893;59.754;10.110;2022-12-07T00:46:39;4.40;;;3.10;;
65289;SDS011;51893;59.754;10.110;2022-12-07T00:49:06;3.60;;;2.60;;
65289;SDS011;51893;59.754;10.110;2022-12-07T00:51:32;8.80;;;4.00;;
65289;SDS011;51893;59.754;10.110;2022-12-07T00:53:59;5.70;;;3.60;;
65289;SDS011;51893;59.754;10.110;2022-12-07T00:56:27;7.60;;;2.80;;
65289;SDS011;51893;59.754;10.110;2022-12-07T00:59:02;8.00;;;4.70;;
65289;SDS011;51893;59.754;10.110;2022-12-07T01:01:33;3.80;;;2.70;;
65289;SDS011;51893;59.754;10.110;2022-12-07T01:04:02;3.80;;;2.50;;
65289;SDS011;51893;59.754;10.110;2022-12-07T01:06:30;4.40;;;3.00;;
65289;SDS011;51893;59.754;10.110;2022-12-07T01:08:57;6.10;;;3.90;;
65289;SDS011;51893;59.754;10.110;2022-12-07T01:11:28;9.20;;;4.50;;
65289;SDS011;51893;59.754;10.110;2022-12-07T01:13:57;4.60;;;3.50;;
65289;SDS011;51893;59.754;10.110;2022-12-07T01:16:26;4.10;;;2.70;;
65289;SDS011;51893;59.754;10.110;2022-12-07T01:18:56;8.40;;;3.30;;
65289;SDS011;51893;59.754;10.110;2022-12-07T01:21:26;6.10;;;4.10;;
65289;SDS011;51893;59.754;10.110;2022-12-07T01:23:57;4.70;;;3.00;;
65289;SDS011;51893;59.754;10.110;2022-12-07T01:26:25;5.00;;;2.50;;
65289;SDS011;51893;59.754;10.110;2022-12-07T01:28:52;5.90;;;4.00;;
65289;SDS011;51893;59.754;10.110;2022-12-07T01:31:23;5.20;;;3.50;;
65289;SDS011;51893;59.754;10.110;2022-12-07T01:33:54;5.60;;;3.30;;
65289;SDS011;51893;59.754;10.110;2022-12-07T01:36:24;5.10;;;3.40;;
65289;SDS011;51893;59.754;10.110;2022-12-07T01:38:56;5.60;;;3.30;;
65289;SDS011;51893;59.754;10.110;2022-12-07T01:41:30;11.10;;;5.30;;
65289;SDS011;51893;59.754;10.110;2022-12-07T01:44:23;39.90;;;14.90;;
65289;SDS011;51893;59.754;10.110;2022-12-07T01:47:02;31.40;;;12.20;;
65289;SDS011;51893;59.754;10.110;2022-12-07T01:49:39;10.40;;;5.50;;
65289;SDS011;51893;59.754;10.110;2022-12-07T01:52:17;6.00;;;2.80;;
65289;SDS011;51893;59.754;10.110;2022-12-07T01:55:03;4.00;;;3.20;;
65289;SDS011;51893;59.754;10.110;2022-12-07T01:57:34;8.90;;;3.70;;
65289;SDS011;51893;59.754;10.110;2022-12-07T02:00:09;4.70;;;3.40;;
65289;SDS011;51893;59.754;10.110;2022-12-07T02:02:45;6.30;;;3.50;;
65289;SDS011;51893;59.754;10.110;2022-12-07T02:05:17;5.30;;;3.30;;
65289;SDS011;51893;59.754;10.110;2022-12-07T02:07:46;4.90;;;3.00;;
65289;SDS011;51893;59.754;10.110;2022-12-07T02:10:21;6.30;;;3.80;;
65289;SDS011;51893;59.754;10.110;2022-12-07T02:12:58;6.90;;;3.40;;
65289;SDS011;51893;59.754;10.110;2022-12-07T02:21:52;4.50;;;3.40;;
65289;SDS011;51893;59.754;10.110;2022-12-07T02:24:52;6.00;;;3.50;;
65289;SDS011;51893;59.754;10.110;2022-12-07T02:27:46;5.90;;;3.40;;
65289;SDS011;51893;59.754;10.110;2022-12-07T02:30:20;4.00;;;2.10;;
65289;SDS011;51893;59.754;10.110;2022-12-07T02:33:04;7.20;;;4.00;;
65289;SDS011;51893;59.754;10.110;2022-12-07T02:35:42;5.50;;;3.30;;
65289;SDS011;51893;59.754;10.110;2022-12-07T02:38:46;4.00;;;2.50;;
65289;SDS011;51893;59.754;10.110;2022-12-07T02:41:57;6.80;;;3.60;;
65289;SDS011;51893;59.754;10.110;2022-12-07T02:44:30;4.00;;;3.10;;
65289;SDS011;51893;59.754;10.110;2022-12-07T02:47:02;5.00;;;3.00;;
65289;SDS011;51893;59.754;10.110;2022-12-07T02:49:32;3.10;;;2.30;;
65289;SDS011;51893;59.754;10.110;2022-12-07T02:51:58;7.10;;;3.20;;
65289;SDS011;51893;59.754;10.110;2022-12-07T02:54:25;4.20;;;3.00;;
65289;SDS011;51893;59.754;10.110;2022-12-07T03:07:51;4.70;;;2.90;;
65289;SDS011;51893;59.754;10.110;2022-12-07T03:10:36;4.10;;;2.50;;
65289;SDS011;51893;59.754;10.110;2022-12-07T03:16:03;2.90;;;2.40;;
65289;SDS011;51893;59.754;10.110;2022-12-07T03:18:37;2.60;;;2.00;;
65289;SDS011;51893;59.754;10.110;2022-12-07T03:21:11;1.60;;;1.50;;
65289;SDS011;51893;59.754;10.110;2022-12-07T03:23:45;3.20;;;2.20;;
65289;SDS011;51893;59.754;10.110;2022-12-07T03:26:18;4.00;;;2.80;;
65289;SDS011;51893;59.754;10.110;2022-12-07T03:28:52;2.60;;;2.10;;
65289;SDS011;51893;59.754;10.110;2022-12-07T03:31:25;1.80;;;1.60;;
65289;SDS011;51893;59.754;10.110;2022-12-07T03:34:18;6.40;;;2.30;;
65289;SDS011;51893;59.754;10.110;2022-12-07T03:37:03;1.60;;;1.30;;
65289;SDS011;51893;59.754;10.110;2022-12-07T03:39:39;3.50;;;2.90;;
65289;SDS011;51893;59.754;10.110;2022-12-07T03:42:11;3.30;;;2.60;;
65289;SDS011;51893;59.754;10.110;2022-12-07T03:44:38;5.60;;;3.30;;
65289;SDS011;51893;59.754;10.110;2022-12-07T03:47:20;5.70;;;2.70;;
65289;SDS011;51893;59.754;10.110;2022-12-07T03:53:19;6.70;;;2.50;;
65289;SDS011;51893;59.754;10.110;2022-12-07T03:55:51;2.80;;;1.90;;
65289;SDS011;51893;59.754;10.110;2022-12-07T03:58:20;4.00;;;2.10;;
65289;SDS011;51893;59.754;10.110;2022-12-07T04:00:50;7.60;;;3.20;;
65289;SDS011;51893;59.754;10.110;2022-12-07T04:03:17;4.50;;;2.70;;
65289;SDS011;51893;59.754;10.110;2022-12-07T04:05:44;2.30;;;1.60;;
65289;SDS011;51893;59.754;10.110;2022-12-07T04:08:11;4.60;;;2.80;;
65289;SDS011;51893;59.754;10.110;2022-12-07T04:10:38;4.30;;;2.90;;
65289;SDS011;51893;59.754;10.110;2022-12-07T04:13:05;4.60;;;3.20;;
65289;SDS011;51893;59.754;10.110;2022-12-07T04:15:31;4.70;;;2.90;;
65289;SDS011;51893;59.754;10.110;2022-12-07T04:17:58;4.20;;;2.70;;
65289;SDS011;51893;59.754;10.110;2022-12-07T04:20:25;2.50;;;2.10;;
65289;SDS011;51893;59.754;10.110;2022-12-07T04:22:51;2.10;;;1.90;;
65289;SDS011;51893;59.754;10.110;2022-12-07T04:25:18;3.80;;;2.00;;
65289;SDS011;51893;59.754;10.110;2022-12-07T04:27:45;3.70;;;3.20;;
65289;SDS011;51893;59.754;10.110;2022-12-07T04:30:12;3.60;;;2.70;;
65289;SDS011;51893;59.754;10.110;2022-12-07T04:32:38;4.00;;;2.80;;
65289;SDS011;51893;59.754;10.110;2022-12-07T04:35:06;2.80;;;2.60;;
65289;SDS011;51893;59.754;10.110;2022-12-07T04:37:33;4.60;;;2.30;;
65289;SDS011;51893;59.754;10.110;2022-12-07T04:40:00;1.80;;;1.50;;
65289;SDS011;51893;59.754;10.110;2022-12-07T04:42:27;2.90;;;1.90;;
65289;SDS011;51893;59.754;10.110;2022-12-07T04:44:54;3.40;;;1.60;;
65289;SDS011;51893;59.754;10.110;2022-12-07T04:47:20;3.30;;;2.20;;
65289;SDS011;51893;59.754;10.110;2022-12-07T04:49:47;3.10;;;2.30;;
65289;SDS011;51893;59.754;10.110;2022-12-07T04:52:13;6.70;;;1.90;;
65289;SDS011;51893;59.754;10.110;2022-12-07T04:54:39;2.70;;;1.80;;
65289;SDS011;51893;59.754;10.110;2022-12-07T04:57:06;1.80;;;1.40;;
65289;SDS011;51893;59.754;10.110;2022-12-07T04:59:32;2.30;;;1.30;;
65289;SDS011;51893;59.754;10.110;2022-12-07T05:01:59;2.70;;;1.50;;
65289;SDS011;51893;59.754;10.110;2022-12-07T05:04:26;1.10;;;1.10;;
65289;SDS011;51893;59.754;10.110;2022-12-07T05:06:52;3.90;;;1.60;;
65289;SDS011;51893;59.754;10.110;2022-12-07T05:09:19;2.60;;;1.60;;
65289;SDS011;51893;59.754;10.110;2022-12-07T05:11:45;2.10;;;1.80;;
65289;SDS011;51893;59.754;10.110;2022-12-07T05:14:18;1.90;;;1.60;;
65289;SDS011;51893;59.754;10.110;2022-12-07T05:16:48;3.20;;;1.90;;
65289;SDS011;51893;59.754;10.110;2022-12-07T05:19:17;2.30;;;2.10;;
65289;SDS011;51893;59.754;10.110;2022-12-07T05:21:46;3.40;;;1.90;;
65289;SDS011;51893;59.754;10.110;2022-12-07T05:24:14;1.60;;;1.40;;
65289;SDS011;51893;59.754;10.110;2022-12-07T05:26:42;1.90;;;1.80;;
65289;SDS011;51893;59.754;10.110;2022-12-07T05:29:14;2.30;;;1.90;;
65289;SDS011;51893;59.754;10.110;2022-12-07T05:31:43;7.40;;;2.60;;
65289;SDS011;51893;59.754;10.110;2022-12-07T05:34:11;2.50;;;2.00;;
65289;SDS011;51893;59.754;10.110;2022-12-07T05:36:38;3.00;;;1.70;;
65289;SDS011;51893;59.754;10.110;2022-12-07T05:39:05;4.40;;;1.90;;
65289;SDS011;51893;59.754;10.110;2022-12-07T05:41:31;1.70;;;1.40;;
65289;SDS011;51893;59.754;10.110;2022-12-07T05:44:17;5.10;;;1.90;;
65289;SDS011;51893;59.754;10.110;2022-12-07T05:46:43;2.40;;;2.10;;
65289;SDS011;51893;59.754;10.110;2022-12-07T05:49:09;3.70;;;2.40;;
65289;SDS011;51893;59.754;10.110;2022-12-07T05:51:36;4.50;;;3.20;;
65289;SDS011;51893;59.754;10.110;2022-12-07T05:54:03;4.90;;;2.80;;
65289;SDS011;51893;59.754;10.110;2022-12-07T05:56:29;3.30;;;2.40;;
65289;SDS011;51893;59.754;10.110;2022-12-07T05:58:55;5.20;;;3.80;;
65289;SDS011;51893;59.754;10.110;2022-12-07T06:01:41;5.10;;;3.40;;
65289;SDS011;51893;59.754;10.110;2022-12-07T06:04:07;5.20;;;2.60;;
65289;SDS011;51893;59.754;10.110;2022-12-07T06:06:34;7.60;;;2.60;;
65289;SDS011;51893;59.754;10.110;2022-12-07T06:09:01;5.60;;;2.50;;
65289;SDS011;51893;59.754;10.110;2022-12-07T06:11:29;4.90;;;2.50;;
65289;SDS011;51893;59.754;10.110;2022-12-07T06:14:14;5.90;;;3.40;;
65289;SDS011;51893;59.754;10.110;2022-12-07T06:16:41;6.30;;;3.60;;
65289;SDS011;51893;59.754;10.110;2022-12-07T06:19:08;3.50;;;2.70;;
65289;SDS011;51893;59.754;10.110;2022-12-07T06:21:35;2.90;;;2.30;;
65289;SDS011;51893;59.754;10.110;2022-12-07T06:24:01;5.60;;;3.40;;
65289;SDS011;51893;59.754;10.110;2022-12-07T06:26:28;6.30;;;3.50;;
65289;SDS011;51893;59.754;10.110;2022-12-07T06:28:54;4.30;;;2.70;;
65289;SDS011;51893;59.754;10.110;2022-12-07T06:31:21;4.10;;;3.10;;
65289;SDS011;51893;59.754;10.110;2022-12-07T06:33:48;3.90;;;1.80;;
65289;SDS011;51893;59.754;10.110;2022-12-07T06:36:15;3.30;;;2.10;;
65289;SDS011;51893;59.754;10.110;2022-12-07T06:38:42;2.60;;;1.80;;
65289;SDS011;51893;59.754;10.110;2022-12-07T06:41:08;2.30;;;1.80;;
65289;SDS011;51893;59.754;10.110;2022-12-07T06:43:35;1.20;;;1.10;;
65289;SDS011;51893;59.754;10.110;2022-12-07T06:46:01;1.30;;;1.10;;
65289;SDS011;51893;59.754;10.110;2022-12-07T06:48:28;1.80;;;1.20;;
65289;SDS011;51893;59.754;10.110;2022-12-07T06:50:55;1.10;;;1.10;;
65289;SDS011;51893;59.754;10.110;2022-12-07T06:53:25;1.10;;;1.00;;
65289;SDS011;51893;59.754;10.110;2022-12-07T06:55:52;0.90;;;0.90;;
65289;SDS011;51893;59.754;10.110;2022-12-07T06:58:18;2.60;;;1.60;;
65289;SDS011;51893;59.754;10.110;2022-12-07T07:00:45;1.50;;;1.20;;
65289;SDS011;51893;59.754;10.110;2022-12-07T07:03:12;1.40;;;1.10;;
65289;SDS011;51893;59.754;10.110;2022-12-07T07:05:39;2.10;;;1.90;;
65289;SDS011;51893;59.754;10.110;2022-12-07T07:08:06;1.50;;;1.40;;
65289;SDS011;51893;59.754;10.110;2022-12-07T07:10:49;1.40;;;1.30;;
65289;SDS011;51893;59.754;10.110;2022-12-07T07:13:16;3.20;;;2.30;;
65289;SDS011;51893;59.754;10.110;2022-12-07T07:15:43;3.30;;;2.40;;
65289;SDS011;51893;59.754;10.110;2022-12-07T07:18:10;1.80;;;1.00;;
65289;SDS011;51893;59.754;10.110;2022-12-07T07:20:37;3.90;;;2.10;;
65289;SDS011;51893;59.754;10.110;2022-12-07T07:23:05;1.90;;;1.70;;
65289;SDS011;51893;59.754;10.110;2022-12-07T07:25:33;2.50;;;2.10;;
65289;SDS011;51893;59.754;10.110;2022-12-07T07:28:00;2.80;;;2.20;;
65289;SDS011;51893;59.754;10.110;2022-12-07T07:30:27;3.00;;;2.20;;
65289;SDS011;51893;59.754;10.110;2022-12-07T07:32:59;5.20;;;2.10;;
65289;SDS011;51893;59.754;10.110;2022-12-07T07:35:30;5.20;;;2.80;;
65289;SDS011;51893;59.754;10.110;2022-12-07T07:37:59;5.70;;;2.00;;
65289;SDS011;51893;59.754;10.110;2022-12-07T07:40:26;4.00;;;1.50;;
65289;SDS011;51893;59.754;10.110;2022-12-07T07:42:55;4.70;;;2.00;;
65289;SDS011;51893;59.754;10.110;2022-12-07T07:45:24;4.90;;;2.40;;
65289;SDS011;51893;59.754;10.110;2022-12-07T07:47:52;1.80;;;1.50;;
65289;SDS011;51893;59.754;10.110;2022-12-07T07:50:19;1.80;;;1.50;;
65289;SDS011;51893;59.754;10.110;2022-12-07T07:52:47;3.00;;;2.20;;
65289;SDS011;51893;59.754;10.110;2022-12-07T07:55:14;5.30;;;2.90;;
65289;SDS011;51893;59.754;10.110;2022-12-07T07:57:45;3.10;;;1.70;;
65289;SDS011;51893;59.754;10.110;2022-12-07T08:00:20;8.00;;;4.30;;
65289;SDS011;51893;59.754;10.110;2022-12-07T08:02:48;8.10;;;3.20;;
65289;SDS011;51893;59.754;10.110;2022-12-07T08:05:14;10.90;;;4.90;;
65289;SDS011;51893;59.754;10.110;2022-12-07T08:07:41;9.30;;;3.00;;
65289;SDS011;51893;59.754;10.110;2022-12-07T08:10:11;3.10;;;1.90;;
65289;SDS011;51893;59.754;10.110;2022-12-07T08:12:40;2.10;;;1.50;;
65289;SDS011;51893;59.754;10.110;2022-12-07T08:15:29;4.90;;;3.10;;
65289;SDS011;51893;59.754;10.110;2022-12-07T08:17:57;5.00;;;1.50;;
65289;SDS011;51893;59.754;10.110;2022-12-07T08:20:25;5.20;;;2.60;;
65289;SDS011;51893;59.754;10.110;2022-12-07T08:22:52;7.40;;;3.40;;
65289;SDS011;51893;59.754;10.110;2022-12-07T08:25:21;5.80;;;3.30;;
65289;SDS011;51893;59.754;10.110;2022-12-07T08:27:49;16.30;;;4.90;;
65289;SDS011;51893;59.754;10.110;2022-12-07T08:30:17;5.50;;;2.80;;
65289;SDS011;51893;59.754;10.110;2022-12-07T08:32:44;7.20;;;3.80;;
65289;SDS011;51893;59.754;10.110;2022-12-07T08:35:12;4.30;;;2.70;;
65289;SDS011;51893;59.754;10.110;2022-12-07T08:37:40;3.20;;;2.30;;
65289;SDS011;51893;59.754;10.110;2022-12-07T08:40:08;11.80;;;3.90;;
65289;SDS011;51893;59.754;10.110;2022-12-07T08:42:36;6.60;;;3.80;;
65289;SDS011;51893;59.754;10.110;2022-12-07T08:45:09;3.40;;;2.50;;
65289;SDS011;51893;59.754;10.110;2022-12-07T08:47:55;3.40;;;2.30;;
65289;SDS011;51893;59.754;10.110;2022-12-07T08:50:29;8.70;;;3.60;;
65289;SDS011;51893;59.754;10.110;2022-12-07T08:52:59;8.50;;;1.90;;
65289;SDS011;51893;59.754;10.110;2022-12-07T08:55:27;7.00;;;3.10;;
65289;SDS011;51893;59.754;10.110;2022-12-07T08:57:57;7.30;;;3.60;;
65289;SDS011;51893;59.754;10.110;2022-12-07T09:00:25;4.80;;;2.80;;
65289;SDS011;51893;59.754;10.110;2022-12-07T09:02:53;4.80;;;2.30;;
65289;SDS011;51893;59.754;10.110;2022-12-07T09:05:20;6.30;;;3.10;;
65289;SDS011;51893;59.754;10.110;2022-12-07T09:07:51;2.40;;;1.90;;
65289;SDS011;51893;59.754;10.110;2022-12-07T09:10:21;2.50;;;1.50;;
65289;SDS011;51893;59.754;10.110;2022-12-07T09:12:51;9.80;;;2.30;;
65289;SDS011;51893;59.754;10.110;2022-12-07T09:15:17;4.20;;;2.20;;
65289;SDS011;51893;59.754;10.110;2022-12-07T09:17:45;6.30;;;2.90;;
65289;SDS011;51893;59.754;10.110;2022-12-07T09:20:12;6.30;;;2.90;;
65289;SDS011;51893;59.754;10.110;2022-12-07T09:22:39;4.40;;;2.90;;
65289;SDS011;51893;59.754;10.110;2022-12-07T09:25:05;4.50;;;3.40;;
65289;SDS011;51893;59.754;10.110;2022-12-07T09:27:32;8.20;;;4.00;;
65289;SDS011;51893;59.754;10.110;2022-12-07T09:29:59;4.60;;;3.50;;
65289;SDS011;51893;59.754;10.110;2022-12-07T09:32:26;7.20;;;2.40;;
65289;SDS011;51893;59.754;10.110;2022-12-07T09:34:53;6.50;;;2.80;;
65289;SDS011;51893;59.754;10.110;2022-12-07T09:37:19;5.80;;;3.60;;
65289;SDS011;51893;59.754;10.110;2022-12-07T09:39:46;8.50;;;3.30;;
65289;SDS011;51893;59.754;10.110;2022-12-07T09:45:10;6.30;;;1.80;;
65289;SDS011;51893;59.754;10.110;2022-12-07T09:47:40;1.70;;;1.60;;
65289;SDS011;51893;59.754;10.110;2022-12-07T09:50:14;3.10;;;1.80;;
65289;SDS011;51893;59.754;10.110;2022-12-07T09:52:46;2.30;;;1.30;;
65289;SDS011;51893;59.754;10.110;2022-12-07T09:55:30;9.00;;;2.60;;
65289;SDS011;51893;59.754;10.110;2022-12-07T09:57:59;4.10;;;2.00;;
65289;SDS011;51893;59.754;10.110;2022-12-07T10:00:25;2.10;;;1.60;;
65289;SDS011;51893;59.754;10.110;2022-12-07T10:02:59;1.70;;;1.60;;
65289;SDS011;51893;59.754;10.110;2022-12-07T10:08:01;2.40;;;1.20;;
65289;SDS011;51893;59.754;10.110;2022-12-07T10:10:32;3.20;;;1.80;;
65289;SDS011;51893;59.754;10.110;2022-12-07T10:13:07;3.40;;;1.70;;
65289;SDS011;51893;59.754;10.110;2022-12-07T10:15:53;4.70;;;2.40;;
65289;SDS011;51893;59.754;10.110;2022-12-07T10:18:36;2.70;;;2.30;;
65289;SDS011;51893;59.754;10.110;2022-12-07T10:24:08;5.00;;;2.60;;
65289;SDS011;51893;59.754;10.110;2022-12-07T10:26:50;2.80;;;1.60;;
65289;SDS011;51893;59.754;10.110;2022-12-07T10:29:32;7.40;;;2.80;;
65289;SDS011;51893;59.754;10.110;2022-12-07T10:32:31;6.70;;;1.80;;
65289;SDS011;51893;59.754;10.110;2022-12-07T10:35:26;7.00;;;2.60;;
65289;SDS011;51893;59.754;10.110;2022-12-07T10:37:58;3.90;;;1.40;;
65289;SDS011;51893;59.754;10.110;2022-12-07T10:48:40;1.00;;;0.90;;
65289;SDS011;51893;59.754;10.110;2022-12-07T10:51:54;3.00;;;1.70;;
65289;SDS011;51893;59.754;10.110;2022-12-07T11:00:24;1.90;;;1.50;;
65289;SDS011;51893;59.754;10.110;2022-12-07T11:09:29;3.40;;;1.60;;
65289;SDS011;51893;59.754;10.110;2022-12-07T11:18:03;2.30;;;1.50;;
65289;SDS011;51893;59.754;10.110;2022-12-07T11:23:40;1.40;;;1.20;;
65289;SDS011;51893;59.754;10.110;2022-12-07T11:26:39;2.60;;;1.60;;
65289;SDS011;51893;59.754;10.110;2022-12-07T11:29:59;8.80;;;2.60;;
65289;SDS011;51893;59.754;10.110;2022-12-07T11:35:55;9.00;;;3.60;;
65289;SDS011;51893;59.754;10.110;2022-12-07T11:38:41;5.40;;;1.80;;
65289;SDS011;51893;59.754;10.110;2022-12-07T11:44:05;2.10;;;1.60;;
65289;SDS011;51893;59.754;10.110;2022-12-07T11:56:03;2.70;;;1.30;;
65289;SDS011;51893;59.754;10.110;2022-12-07T12:03:55;3.00;;;1.70;;
65289;SDS011;51893;59.754;10.110;2022-12-07T12:06:40;6.20;;;1.50;;
65289;SDS011;51893;59.754;10.110;2022-12-07T12:09:17;3.40;;;1.60;;
65289;SDS011;51893;59.754;10.110;2022-12-07T12:21:10;2.30;;;1.30;;
65289;SDS011;51893;59.754;10.110;2022-12-07T12:24:18;2.10;;;1.60;;
65289;SDS011;51893;59.754;10.110;2022-12-07T12:26:52;5.30;;;1.50;;
65289;SDS011;51893;59.754;10.110;2022-12-07T12:29:34;1.40;;;1.30;;
65289;SDS011;51893;59.754;10.110;2022-12-07T12:35:27;3.40;;;1.20;;
65289;SDS011;51893;59.754;10.110;2022-12-07T12:41:01;3.40;;;1.50;;
65289;SDS011;51893;59.754;10.110;2022-12-07T12:43:47;2.70;;;1.80;;
65289;SDS011;51893;59.754;10.110;2022-12-07T12:51:44;3.20;;;1.50;;
65289;SDS011;51893;59.754;10.110;2022-12-07T12:54:22;1.10;;;1.00;;
65289;SDS011;51893;59.754;10.110;2022-12-07T12:59:36;6.20;;;1.20;;
65289;SDS011;51893;59.754;10.110;2022-12-07T13:02:27;3.60;;;1.50;;
65289;SDS011;51893;59.754;10.110;2022-12-07T13:31:56;6.50;;;2.30;;
65289;SDS011;51893;59.754;10.110;2022-12-07T13:34:39;4.90;;;2.00;;
65289;SDS011;51893;59.754;10.110;2022-12-07T13:37:14;11.30;;;2.70;;
65289;SDS011;51893;59.754;10.110;2022-12-07T13:39:52;15.60;;;4.00;;
65289;SDS011;51893;59.754;10.110;2022-12-07T13:44:59;12.00;;;3.00;;
65289;SDS011;51893;59.754;10.110;2022-12-07T13:47:52;6.80;;;2.10;;
65289;SDS011;51893;59.754;10.110;2022-12-07T13:50:32;2.50;;;1.80;;
65289;SDS011;51893;59.754;10.110;2022-12-07T13:53:00;3.60;;;2.00;;
65289;SDS011;51893;59.754;10.110;2022-12-07T13:55:28;3.60;;;2.00;;
65289;SDS011;51893;59.754;10.110;2022-12-07T13:57:56;2.80;;;1.80;;
65289;SDS011;51893;59.754;10.110;2022-12-07T14:00:28;3.30;;;1.80;;
65289;SDS011;51893;59.754;10.110;2022-12-07T14:03:01;3.70;;;2.00;;
65289;SDS011;51893;59.754;10.110;2022-12-07T14:05:32;3.90;;;2.60;;
65289;SDS011;51893;59.754;10.110;2022-12-07T14:08:21;6.40;;;4.30;;
65289;SDS011;51893;59.754;10.110;2022-12-07T14:13:31;9.70;;;4.50;;
65289;SDS011;51893;59.754;10.110;2022-12-07T14:16:04;10.00;;;3.60;;
65289;SDS011;51893;59.754;10.110;2022-12-07T14:18:55;6.30;;;2.20;;
65289;SDS011;51893;59.754;10.110;2022-12-07T14:21:29;4.40;;;2.90;;
65289;SDS011;51893;59.754;10.110;2022-12-07T14:26:46;10.10;;;3.20;;
65289;SDS011;51893;59.754;10.110;2022-12-07T14:32:17;5.50;;;2.20;;
65289;SDS011;51893;59.754;10.110;2022-12-07T14:35:08;5.00;;;2.10;;
65289;SDS011;51893;59.754;10.110;2022-12-07T14:37:38;15.60;;;5.70;;
65289;SDS011;51893;59.754;10.110;2022-12-07T14:40:06;4.30;;;2.40;;
65289;SDS011;51893;59.754;10.110;2022-12-07T14:42:39;15.10;;;5.50;;
65289;SDS011;51893;59.754;10.110;2022-12-07T14:45:16;3.50;;;2.30;;
65289;SDS011;51893;59.754;10.110;2022-12-07T14:47:46;3.90;;;2.60;;
65289;SDS011;51893;59.754;10.110;2022-12-07T14:50:41;2.90;;;1.50;;
65289;SDS011;51893;59.754;10.110;2022-12-07T14:53:36;3.40;;;1.80;;
65289;SDS011;51893;59.754;10.110;2022-12-07T14:56:06;3.50;;;2.10;;
65289;SDS011;51893;59.754;10.110;2022-12-07T14:58:34;9.50;;;5.30;;
65289;SDS011;51893;59.754;10.110;2022-12-07T15:01:01;22.90;;;11.40;;
65289;SDS011;51893;59.754;10.110;2022-12-07T15:03:27;20.30;;;9.60;;
65289;SDS011;51893;59.754;10.110;2022-12-07T15:05:55;12.00;;;7.20;;
65289;SDS011;51893;59.754;10.110;2022-12-07T15:08:21;9.50;;;5.00;;
65289;SDS011;51893;59.754;10.110;2022-12-07T15:10:48;4.90;;;3.80;;
65289;SDS011;51893;59.754;10.110;2022-12-07T15:13:15;11.80;;;6.30;;
65289;SDS011;51893;59.754;10.110;2022-12-07T15:16:01;6.80;;;4.30;;
65289;SDS011;51893;59.754;10.110;2022-12-07T15:18:28;3.50;;;2.70;;
65289;SDS011;51893;59.754;10.110;2022-12-07T15:20:54;9.70;;;5.50;;
65289;SDS011;51893;59.754;10.110;2022-12-07T15:23:20;12.10;;;7.50;;
65289;SDS011;51893;59.754;10.110;2022-12-07T15:25:48;13.00;;;7.20;;
65289;SDS011;51893;59.754;10.110;2022-12-07T15:28:16;12.50;;;7.80;;
65289;SDS011;51893;59.754;10.110;2022-12-07T15:30:44;8.80;;;4.80;;
65289;SDS011;51893;59.754;10.110;2022-12-07T15:33:12;5.60;;;3.80;;
65289;SDS011;51893;59.754;10.110;2022-12-07T15:35:41;4.30;;;2.10;;
65289;SDS011;51893;59.754;10.110;2022-12-07T15:38:10;6.80;;;2.90;;
65289;SDS011;51893;59.754;10.110;2022-12-07T15:40:37;3.20;;;1.90;;
65289;SDS011;51893;59.754;10.110;2022-12-07T15:43:04;21.00;;;7.30;;
65289;SDS011;51893;59.754;10.110;2022-12-07T15:45:31;12.10;;;4.10;;
65289;SDS011;51893;59.754;10.110;2022-12-07T15:47:58;15.70;;;5.20;;
65289;SDS011;51893;59.754;10.110;2022-12-07T15:50:46;10.10;;;3.80;;
65289;SDS011;51893;59.754;10.110;2022-12-07T15:53:12;8.90;;;3.80;;
65289;SDS011;51893;59.754;10.110;2022-12-07T15:55:40;10.80;;;5.50;;
65289;SDS011;51893;59.754;10.110;2022-12-07T15:58:07;19.50;;;6.50;;
65289;SDS011;51893;59.754;10.110;2022-12-07T16:00:34;8.40;;;4.50;;
65289;SDS011;51893;59.754;10.110;2022-12-07T16:03:01;11.60;;;6.20;;
65289;SDS011;51893;59.754;10.110;2022-12-07T16:05:28;13.40;;;5.90;;
65289;SDS011;51893;59.754;10.110;2022-12-07T16:07:54;3.90;;;2.60;;
65289;SDS011;51893;59.754;10.110;2022-12-07T16:10:21;10.40;;;4.20;;
65289;SDS011;51893;59.754;10.110;2022-12-07T16:12:49;6.90;;;3.50;;
65289;SDS011;51893;59.754;10.110;2022-12-07T16:15:17;7.90;;;3.30;;
65289;SDS011;51893;59.754;10.110;2022-12-07T16:17:51;7.60;;;3.60;;
65289;SDS011;51893;59.754;10.110;2022-12-07T16:20:18;6.40;;;3.10;;
65289;SDS011;51893;59.754;10.110;2022-12-07T16:22:44;6.30;;;2.70;;
65289;SDS011;51893;59.754;10.110;2022-12-07T16:25:11;10.90;;;3.40;;
65289;SDS011;51893;59.754;10.110;2022-12-07T16:27:37;13.20;;;4.70;;
65289;SDS011;51893;59.754;10.110;2022-12-07T16:30:05;7.10;;;3.40;;
65289;SDS011;51893;59.754;10.110;2022-12-07T16:32:32;10.00;;;4.40;;
65289;SDS011;51893;59.754;10.110;2022-12-07T16:34:59;12.30;;;4.60;;
65289;SDS011;51893;59.754;10.110;2022-12-07T16:37:27;27.30;;;9.40;;
65289;SDS011;51893;59.754;10.110;2022-12-07T16:39:53;28.20;;;9.70;;
65289;SDS011;51893;59.754;10.110;2022-12-07T16:42:20;14.10;;;6.60;;
65289;SDS011;51893;59.754;10.110;2022-12-07T16:44:47;22.60;;;7.90;;
65289;SDS011;51893;59.754;10.110;2022-12-07T16:47:13;27.40;;;11.30;;
65289;SDS011;51893;59.754;10.110;2022-12-07T16:49:40;18.40;;;7.40;;
65289;SDS011;51893;59.754;10.110;2022-12-07T16:52:06;16.40;;;6.60;;
65289;SDS011;51893;59.754;10.110;2022-12-07T16:54:49;15.10;;;6.10;;
65289;SDS011;51893;59.754;10.110;2022-12-07T16:57:16;6.40;;;3.80;;
65289;SDS011;51893;59.754;10.110;2022-12-07T16:59:50;8.20;;;4.60;;
65289;SDS011;51893;59.754;10.110;2022-12-07T17:02:18;14.40;;;4.90;;
65289;SDS011;51893;59.754;10.110;2022-12-07T17:04:46;24.30;;;5.40;;
65289;SDS011;51893;59.754;10.110;2022-12-07T17:07:13;28.30;;;7.90;;
65289;SDS011;51893;59.754;10.110;2022-12-07T17:09:40;13.90;;;6.30;;
65289;SDS011;51893;59.754;10.110;2022-12-07T17:12:06;12.00;;;5.30;;
65289;SDS011;51893;59.754;10.110;2022-12-07T17:14:33;19.50;;;3.70;;
65289;SDS011;51893;59.754;10.110;2022-12-07T17:17:18;13.00;;;4.20;;
65289;SDS011;51893;59.754;10.110;2022-12-07T17:19:45;10.60;;;3.30;;
65289;SDS011;51893;59.754;10.110;2022-12-07T17:22:12;8.20;;;3.00;;
65289;SDS011;51893;59.754;10.110;2022-12-07T17:24:39;3.70;;;2.70;;